Glen Arbor, Michigan
Current Conditions -  °F | °C
As of 1:32 AM on Sunday 21 Dec 2014 (Local Time) from KFKS Reporting Station
Overcast Overcast  
Wind Chill: 23°   Ceiling: 3000
Heat Index: 29°   Visibility: 10mi
Dew Point: 26°   Wind: 6mph
Humidity: 86%   Direction: 150°SSE
Pressure: 30.23"   Gusts: NA
Location:  44.9°N, 85.99°W
Report Text: KFKS 210632Z AUTO 15005KT 10SM OVC030 M01/M03 A3023 RMK AO2 T10151035
Loading
Personal Weather Stations






























Interactive Weather Map New forecast layout! Learn more

10-Day Weather Forecast

Advertisements
Track Severe Weather on mobile